Couch, Missouri
Current Conditions -  °F | °C
As of 12:53 AM on Wednesday 26 Nov 2014 (Local Time) from KUNO Reporting Station
Clear Clear  
Wind Chill: 24°   Ceiling: Unl
Heat Index: 24°   Visibility: 10mi
Dew Point: 18°   Wind: 0mph
Humidity: 77%   Direction: NA
Pressure: 30.09"   Gusts: NA
Location:  36.61°N, 91.38°W
Report Text: KUNO 260653Z AUTO 00000KT 10SM CLR M04/M08 A3009 RMK AO2 SLP200 T10441078
Loading
Personal Weather Stations






























Interactive Weather Map New forecast layout! Learn more

10-Day Weather Forecast

Advertisements
Track Severe Weather on mobile